sensor_id;sensor_type;location;lat;lon;timestamp;pressure;altitude;pressure_sealevel;temperature;humidity
15263;BME280;7733;51.554;13.590;2023-02-21T00:02:32;100329.13;;;10.29;95.91
15263;BME280;7733;51.554;13.590;2023-02-21T00:05:16;100321.34;;;10.20;96.90
15263;BME280;7733;51.554;13.590;2023-02-21T00:08:01;100338.84;;;10.22;97.12
15263;BME280;7733;51.554;13.590;2023-02-21T00:10:45;100333.47;;;10.31;96.97
15263;BME280;7733;51.554;13.590;2023-02-21T00:13:29;100326.59;;;10.20;97.50
15263;BME280;7733;51.554;13.590;2023-02-21T00:16:16;100336.25;;;10.16;97.92
15263;BME280;7733;51.554;13.590;2023-02-21T00:19:01;100332.78;;;10.14;98.25
15263;BME280;7733;51.554;13.590;2023-02-21T00:21:45;100314.34;;;10.25;98.34
15263;BME280;7733;51.554;13.590;2023-02-21T00:24:30;100324.84;;;10.25;98.32
15263;BME280;7733;51.554;13.590;2023-02-21T00:27:14;100323.22;;;10.12;98.75
15263;BME280;7733;51.554;13.590;2023-02-21T00:29:58;100332.72;;;10.19;98.72
15263;BME280;7733;51.554;13.590;2023-02-21T00:32:42;100329.19;;;10.26;98.91
15263;BME280;7733;51.554;13.590;2023-02-21T00:35:26;100319.63;;;10.22;98.79
15263;BME280;7733;51.554;13.590;2023-02-21T00:38:11;100330.09;;;10.25;98.64
15263;BME280;7733;51.554;13.590;2023-02-21T00:40:56;100319.63;;;10.19;99.28
15263;BME280;7733;51.554;13.590;2023-02-21T00:43:40;100306.59;;;10.13;99.19
15263;BME280;7733;51.554;13.590;2023-02-21T00:46:24;100320.50;;;10.21;98.56
15263;BME280;7733;51.554;13.590;2023-02-21T00:49:09;100316.16;;;10.21;98.67
15263;BME280;7733;51.554;13.590;2023-02-21T00:51:53;100329.28;;;10.15;99.32
15263;BME280;7733;51.554;13.590;2023-02-21T00:54:38;100315.13;;;10.31;98.48
15263;BME280;7733;51.554;13.590;2023-02-21T00:57:22;100310.66;;;10.36;97.86
15263;BME280;7733;51.554;13.590;2023-02-21T01:00:14;100308.19;;;10.27;98.60
15263;BME280;7733;51.554;13.590;2023-02-21T01:02:59;100310.88;;;10.20;99.06
15263;BME280;7733;51.554;13.590;2023-02-21T01:05:43;100299.56;;;10.16;99.24
15263;BME280;7733;51.554;13.590;2023-02-21T01:08:27;100304.59;;;10.33;99.04
15263;BME280;7733;51.554;13.590;2023-02-21T01:11:16;100303.50;;;10.49;97.80
15263;BME280;7733;51.554;13.590;2023-02-21T01:14:01;100287.94;;;10.37;97.10
15263;BME280;7733;51.554;13.590;2023-02-21T01:16:45;100295.75;;;10.42;96.88
15263;BME280;7733;51.554;13.590;2023-02-21T01:19:30;100294.81;;;10.46;97.77
15263;BME280;7733;51.554;13.590;2023-02-21T01:22:14;100291.38;;;10.42;98.17
15263;BME280;7733;51.554;13.590;2023-02-21T01:24:58;100299.28;;;10.38;99.03
15263;BME280;7733;51.554;13.590;2023-02-21T01:27:43;100290.66;;;10.31;100.00
15263;BME280;7733;51.554;13.590;2023-02-21T01:30:27;100291.41;;;10.39;100.00
15263;BME280;7733;51.554;13.590;2023-02-21T01:33:11;100296.91;;;10.24;100.00
15263;BME280;7733;51.554;13.590;2023-02-21T01:35:55;100287.28;;;10.20;100.00
15263;BME280;7733;51.554;13.590;2023-02-21T01:38:40;100295.28;;;10.11;100.00
15263;BME280;7733;51.554;13.590;2023-02-21T01:41:25;100289.94;;;10.17;100.00
15263;BME280;7733;51.554;13.590;2023-02-21T01:47:23;100292.72;;;10.07;100.00
15263;BME280;7733;51.554;13.590;2023-02-21T01:50:33;100287.41;;;10.11;100.00
15263;BME280;7733;51.554;13.590;2023-02-21T01:53:23;100288.38;;;10.05;100.00
15263;BME280;7733;51.554;13.590;2023-02-21T01:56:09;100291.97;;;9.96;100.00
15263;BME280;7733;51.554;13.590;2023-02-21T01:58:59;100281.44;;;9.99;100.00
15263;BME280;7733;51.554;13.590;2023-02-21T02:04:46;100269.13;;;10.07;100.00
15263;BME280;7733;51.554;13.590;2023-02-21T02:07:32;100273.72;;;9.90;100.00
15263;BME280;7733;51.554;13.590;2023-02-21T02:10:18;100269.38;;;9.88;100.00
15263;BME280;7733;51.554;13.590;2023-02-21T02:16:23;100263.16;;;9.95;100.00
15263;BME280;7733;51.554;13.590;2023-02-21T02:22:14;100262.34;;;9.91;100.00
15263;BME280;7733;51.554;13.590;2023-02-21T02:28:13;100258.97;;;9.83;100.00
15263;BME280;7733;51.554;13.590;2023-02-21T02:31:20;100273.88;;;9.76;100.00
15263;BME280;7733;51.554;13.590;2023-02-21T02:37:34;100247.78;;;9.70;100.00
15263;BME280;7733;51.554;13.590;2023-02-21T02:40:13;100256.56;;;9.66;100.00
15263;BME280;7733;51.554;13.590;2023-02-21T02:43:17;100242.69;;;9.61;100.00
15263;BME280;7733;51.554;13.590;2023-02-21T02:46:04;100247.91;;;9.58;100.00
15263;BME280;7733;51.554;13.590;2023-02-21T02:48:40;100244.44;;;9.58;100.00
15263;BME280;7733;51.554;13.590;2023-02-21T02:51:12;100247.91;;;9.58;100.00
15263;BME280;7733;51.554;13.590;2023-02-21T02:53:39;100242.66;;;9.60;100.00
15263;BME280;7733;51.554;13.590;2023-02-21T02:56:08;100239.94;;;9.70;100.00
15263;BME280;7733;51.554;13.590;2023-02-21T02:58:57;100230.19;;;9.79;100.00
15263;BME280;7733;51.554;13.590;2023-02-21T03:04:42;100236.19;;;9.90;100.00
15263;BME280;7733;51.554;13.590;2023-02-21T03:07:26;100234.22;;;10.05;100.00
15263;BME280;7733;51.554;13.590;2023-02-21T03:15:54;100221.91;;;10.11;100.00
15263;BME280;7733;51.554;13.590;2023-02-21T03:18:39;100225.28;;;10.17;100.00
15263;BME280;7733;51.554;13.590;2023-02-21T03:21:17;100225.28;;;10.22;100.00
15263;BME280;7733;51.554;13.590;2023-02-21T03:23:49;100238.31;;;10.26;100.00
15263;BME280;7733;51.554;13.590;2023-02-21T03:26:16;100220.03;;;10.17;100.00
15263;BME280;7733;51.554;13.590;2023-02-21T03:28:44;100213.94;;;10.17;100.00
15263;BME280;7733;51.554;13.590;2023-02-21T03:31:13;100212.22;;;10.16;100.00
15263;BME280;7733;51.554;13.590;2023-02-21T03:33:42;100210.47;;;10.16;100.00
15263;BME280;7733;51.554;13.590;2023-02-21T03:36:09;100204.44;;;10.10;100.00
15263;BME280;7733;51.554;13.590;2023-02-21T03:38:34;100214.88;;;10.13;100.00
15263;BME280;7733;51.554;13.590;2023-02-21T03:41:00;100202.53;;;10.24;100.00
15263;BME280;7733;51.554;13.590;2023-02-21T03:43:26;100207.84;;;10.15;100.00
15263;BME280;7733;51.554;13.590;2023-02-21T03:45:52;100199.06;;;10.19;100.00
15263;BME280;7733;51.554;13.590;2023-02-21T03:48:18;100202.38;;;10.31;100.00
15263;BME280;7733;51.554;13.590;2023-02-21T03:50:44;100212.97;;;10.27;100.00
15263;BME280;7733;51.554;13.590;2023-02-21T03:53:09;100203.19;;;10.36;100.00
15263;BME280;7733;51.554;13.590;2023-02-21T03:55:36;100204.84;;;10.42;100.00
15263;BME280;7733;51.554;13.590;2023-02-21T03:58:03;100205.84;;;10.33;100.00
15263;BME280;7733;51.554;13.590;2023-02-21T04:00:28;100201.44;;;10.35;100.00
15263;BME280;7733;51.554;13.590;2023-02-21T04:02:54;100212.09;;;10.26;100.00
15263;BME280;7733;51.554;13.590;2023-02-21T04:05:20;100190.22;;;10.29;100.00
15263;BME280;7733;51.554;13.590;2023-02-21T04:07:46;100205.78;;;10.38;100.00
15263;BME280;7733;51.554;13.590;2023-02-21T04:10:13;100197.00;;;10.41;100.00
15263;BME280;7733;51.554;13.590;2023-02-21T04:12:38;100203.09;;;10.43;100.00
15263;BME280;7733;51.554;13.590;2023-02-21T04:15:04;100198.84;;;10.34;100.00
15263;BME280;7733;51.554;13.590;2023-02-21T04:17:30;100200.53;;;10.38;100.00
15263;BME280;7733;51.554;13.590;2023-02-21T04:19:56;100212.00;;;10.32;100.00
15263;BME280;7733;51.554;13.590;2023-02-21T04:22:22;100212.06;;;10.28;100.00
15263;BME280;7733;51.554;13.590;2023-02-21T04:24:47;100212.09;;;10.26;100.00
15263;BME280;7733;51.554;13.590;2023-02-21T04:27:14;100212.91;;;10.30;100.00
15263;BME280;7733;51.554;13.590;2023-02-21T04:29:40;100211.38;;;10.14;100.00
15263;BME280;7733;51.554;13.590;2023-02-21T04:32:06;100212.25;;;10.14;100.00
15263;BME280;7733;51.554;13.590;2023-02-21T04:34:31;100210.47;;;10.16;100.00
15263;BME280;7733;51.554;13.590;2023-02-21T04:36:57;100209.63;;;10.13;100.00
15263;BME280;7733;51.554;13.590;2023-02-21T04:39:23;100211.38;;;10.14;100.00
15263;BME280;7733;51.554;13.590;2023-02-21T04:41:48;100220.22;;;10.06;100.00
15263;BME280;7733;51.554;13.590;2023-02-21T04:44:14;100214.13;;;10.06;100.00
15263;BME280;7733;51.554;13.590;2023-02-21T04:46:43;100224.72;;;9.97;100.00
15263;BME280;7733;51.554;13.590;2023-02-21T04:49:11;100215.97;;;9.98;100.00
15263;BME280;7733;51.554;13.590;2023-02-21T04:51:37;100209.00;;;9.97;100.00
15263;BME280;7733;51.554;13.590;2023-02-21T04:54:03;100214.16;;;10.04;100.00
15263;BME280;7733;51.554;13.590;2023-02-21T04:56:29;100206.16;;;10.12;100.00
15263;BME280;7733;51.554;13.590;2023-02-21T04:58:55;100205.59;;;9.92;100.00
15263;BME280;7733;51.554;13.590;2023-02-21T05:01:22;100208.22;;;9.90;100.00
15263;BME280;7733;51.554;13.590;2023-02-21T05:03:48;100218.69;;;9.90;100.00
15263;BME280;7733;51.554;13.590;2023-02-21T05:06:23;100223.13;;;9.87;100.00
15263;BME280;7733;51.554;13.590;2023-02-21T05:08:50;100220.53;;;9.85;100.00
15263;BME280;7733;51.554;13.590;2023-02-21T05:11:18;100210.72;;;9.98;100.00
15263;BME280;7733;51.554;13.590;2023-02-21T05:13:45;100225.72;;;9.88;100.00
15263;BME280;7733;51.554;13.590;2023-02-21T05:16:11;100218.09;;;9.70;100.00
15263;BME280;7733;51.554;13.590;2023-02-21T05:18:37;100217.31;;;9.65;100.00
15263;BME280;7733;51.554;13.590;2023-02-21T05:21:05;100214.63;;;9.69;100.00
15263;BME280;7733;51.554;13.590;2023-02-21T05:23:31;100210.41;;;9.58;100.00
15263;BME280;7733;51.554;13.590;2023-02-21T05:26:08;100210.41;;;9.58;100.00
15263;BME280;7733;51.554;13.590;2023-02-21T05:28:35;100217.38;;;9.59;100.00
15263;BME280;7733;51.554;13.590;2023-02-21T05:31:01;100231.28;;;9.64;100.00
15263;BME280;7733;51.554;13.590;2023-02-21T05:33:27;100227.00;;;9.55;100.00
15263;BME280;7733;51.554;13.590;2023-02-21T05:35:53;100233.13;;;9.56;100.00
15263;BME280;7733;51.554;13.590;2023-02-21T05:38:21;100236.53;;;9.61;100.00
15263;BME280;7733;51.554;13.590;2023-02-21T05:40:47;100233.13;;;9.56;100.00
15263;BME280;7733;51.554;13.590;2023-02-21T05:43:13;100234.81;;;9.61;100.00
15263;BME280;7733;51.554;13.590;2023-02-21T05:45:40;100241.00;;;9.54;100.00
15263;BME280;7733;51.554;13.590;2023-02-21T05:48:06;100228.63;;;9.67;100.00
15263;BME280;7733;51.554;13.590;2023-02-21T05:50:32;100233.78;;;9.73;100.00
15263;BME280;7733;51.554;13.590;2023-02-21T05:52:59;100246.91;;;9.70;100.00
15263;BME280;7733;51.554;13.590;2023-02-21T05:55:25;100249.47;;;9.74;100.00
15263;BME280;7733;51.554;13.590;2023-02-21T05:57:52;100244.22;;;9.76;100.00
15263;BME280;7733;51.554;13.590;2023-02-21T06:00:25;100247.72;;;9.75;100.00
15263;BME280;7733;51.554;13.590;2023-02-21T06:02:53;100247.69;;;9.76;100.00
15263;BME280;7733;51.554;13.590;2023-02-21T06:05:20;100246.81;;;9.76;100.00
15263;BME280;7733;51.554;13.590;2023-02-21T06:07:47;100263.44;;;9.73;100.00
15263;BME280;7733;51.554;13.590;2023-02-21T06:10:14;100261.75;;;9.69;100.00
15263;BME280;7733;51.554;13.590;2023-02-21T06:12:40;100266.88;;;9.79;100.00
15263;BME280;7733;51.554;13.590;2023-02-21T06:15:10;100272.13;;;9.77;100.00
15263;BME280;7733;51.554;13.590;2023-02-21T06:17:38;100280.91;;;9.73;100.00
15263;BME280;7733;51.554;13.590;2023-02-21T06:20:05;100280.00;;;9.75;100.00
15263;BME280;7733;51.554;13.590;2023-02-21T06:22:31;100279.94;;;9.80;100.00
15263;BME280;7733;51.554;13.590;2023-02-21T06:24:57;100271.38;;;9.69;100.00
15263;BME280;7733;51.554;13.590;2023-02-21T06:27:23;100282.50;;;9.88;100.00
15263;BME280;7733;51.554;13.590;2023-02-21T06:29:49;100280.88;;;9.76;100.00
15263;BME280;7733;51.554;13.590;2023-02-21T06:32:15;100281.75;;;9.76;100.00
15263;BME280;7733;51.554;13.590;2023-02-21T06:34:43;100281.81;;;9.72;100.00
15263;BME280;7733;51.554;13.590;2023-02-21T06:37:08;100286.19;;;9.70;100.00
15263;BME280;7733;51.554;13.590;2023-02-21T06:39:34;100286.16;;;9.73;100.00
15263;BME280;7733;51.554;13.590;2023-02-21T06:42:00;100283.63;;;9.67;100.00
15263;BME280;7733;51.554;13.590;2023-02-21T06:44:25;100295.13;;;9.52;100.00
15263;BME280;7733;51.554;13.590;2023-02-21T06:46:51;100281.06;;;9.61;100.00
15263;BME280;7733;51.554;13.590;2023-02-21T06:49:20;100295.88;;;9.65;100.00
15263;BME280;7733;51.554;13.590;2023-02-21T06:51:46;100303.78;;;9.57;100.00
15263;BME280;7733;51.554;13.590;2023-02-21T06:54:12;100307.31;;;9.55;100.00
15263;BME280;7733;51.554;13.590;2023-02-21T06:56:39;100318.59;;;9.60;100.00
15263;BME280;7733;51.554;13.590;2023-02-21T06:59:05;100301.16;;;9.59;100.00
15263;BME280;7733;51.554;13.590;2023-02-21T07:01:31;100295.03;;;9.61;100.00
15263;BME280;7733;51.554;13.590;2023-02-21T07:03:57;100320.25;;;9.70;100.00
15263;BME280;7733;51.554;13.590;2023-02-21T07:06:23;100315.09;;;9.64;100.00
15263;BME280;7733;51.554;13.590;2023-02-21T07:08:49;100312.53;;;9.58;100.00
15263;BME280;7733;51.554;13.590;2023-02-21T07:11:17;100316.78;;;9.68;100.00
15263;BME280;7733;51.554;13.590;2023-02-21T07:13:53;100322.94;;;9.64;100.00
15263;BME280;7733;51.554;13.590;2023-02-21T07:16:21;100332.47;;;9.71;100.00
15263;BME280;7733;51.554;13.590;2023-02-21T07:18:47;100320.28;;;9.67;100.00
15263;BME280;7733;51.554;13.590;2023-02-21T07:21:14;100319.31;;;9.74;100.00
15263;BME280;7733;51.554;13.590;2023-02-21T07:23:43;100331.34;;;9.90;100.00
15263;BME280;7733;51.554;13.590;2023-02-21T07:26:09;100336.78;;;9.75;100.00
15263;BME280;7733;51.554;13.590;2023-02-21T07:28:35;100333.22;;;9.79;100.00
15263;BME280;7733;51.554;13.590;2023-02-21T07:31:01;100340.22;;;9.77;100.00
15263;BME280;7733;51.554;13.590;2023-02-21T07:33:27;100337.47;;;9.89;100.00
15263;BME280;7733;51.554;13.590;2023-02-21T07:35:53;100339.31;;;9.84;100.00
15263;BME280;7733;51.554;13.590;2023-02-21T07:38:25;100338.47;;;9.79;100.00
15263;BME280;7733;51.554;13.590;2023-02-21T07:40:54;100338.44;;;9.81;100.00
15263;BME280;7733;51.554;13.590;2023-02-21T07:43:20;100348.75;;;9.94;100.00
15263;BME280;7733;51.554;13.590;2023-02-21T07:45:46;100342.59;;;10.01;100.00
15263;BME280;7733;51.554;13.590;2023-02-21T07:48:12;100349.56;;;9.99;100.00
15263;BME280;7733;51.554;13.590;2023-02-21T07:50:41;100351.41;;;9.93;100.00
15263;BME280;7733;51.554;13.590;2023-02-21T07:53:08;100356.72;;;9.88;100.00
15263;BME280;7733;51.554;13.590;2023-02-21T07:55:34;100362.63;;;10.04;100.00
15263;BME280;7733;51.554;13.590;2023-02-21T07:58:01;100352.19;;;10.02;100.00
15263;BME280;7733;51.554;13.590;2023-02-21T08:00:27;100354.75;;;10.05;100.00
15263;BME280;7733;51.554;13.590;2023-02-21T08:02:53;100361.78;;;10.00;100.00
15263;BME280;7733;51.554;13.590;2023-02-21T08:05:19;100366.28;;;9.91;100.00
15263;BME280;7733;51.554;13.590;2023-02-21T08:07:46;100373.25;;;9.92;100.00
15263;BME280;7733;51.554;13.590;2023-02-21T08:10:20;100377.47;;;10.06;100.00
15263;BME280;7733;51.554;13.590;2023-02-21T08:12:46;100381.91;;;9.98;100.00
15263;BME280;7733;51.554;13.590;2023-02-21T08:15:12;100375.69;;;10.07;100.00
15263;BME280;7733;51.554;13.590;2023-02-21T08:17:38;100377.41;;;10.10;100.00
15263;BME280;7733;51.554;13.590;2023-02-21T08:20:04;100380.06;;;10.06;100.00
15263;BME280;7733;51.554;13.590;2023-02-21T08:22:31;100383.53;;;10.09;100.00
15263;BME280;7733;51.554;13.590;2023-02-21T08:24:57;100374.69;;;10.22;100.00
15263;BME280;7733;51.554;13.590;2023-02-21T08:27:22;100384.31;;;10.17;100.00
15263;BME280;7733;51.554;13.590;2023-02-21T08:29:50;100388.69;;;10.16;100.00
15263;BME280;7733;51.554;13.590;2023-02-21T08:32:17;100382.50;;;10.25;100.00
15263;BME280;7733;51.554;13.590;2023-02-21T08:34:47;100385.16;;;10.23;100.00
15263;BME280;7733;51.554;13.590;2023-02-21T08:37:14;100387.81;;;10.16;100.00
15263;BME280;7733;51.554;13.590;2023-02-21T08:39:49;100395.72;;;10.13;100.00
15263;BME280;7733;51.554;13.590;2023-02-21T08:42:20;100396.59;;;10.12;100.00
15263;BME280;7733;51.554;13.590;2023-02-21T08:44:46;100411.50;;;10.08;100.00
15263;BME280;7733;51.554;13.590;2023-02-21T08:47:15;100406.16;;;10.16;100.00
15263;BME280;7733;51.554;13.590;2023-02-21T08:49:45;100414.94;;;10.12;100.00
15263;BME280;7733;51.554;13.590;2023-02-21T08:52:14;100417.75;;;9.96;100.00
15263;BME280;7733;51.554;13.590;2023-02-21T08:54:44;100419.44;;;10.02;100.00
15263;BME280;7733;51.554;13.590;2023-02-21T08:57:10;100424.75;;;9.94;100.00
15263;BME280;7733;51.554;13.590;2023-02-21T08:59:43;100424.72;;;9.97;100.00
15263;BME280;7733;51.554;13.590;2023-02-21T09:02:36;100423.66;;;10.14;100.00
15263;BME280;7733;51.554;13.590;2023-02-21T09:05:15;100420.31;;;10.01;100.00
15263;BME280;7733;51.554;13.590;2023-02-21T09:07:41;100417.66;;;10.04;100.00
15263;BME280;7733;51.554;13.590;2023-02-21T09:10:08;100419.47;;;9.97;100.00
15263;BME280;7733;51.554;13.590;2023-02-21T09:12:39;100421.22;;;9.98;100.00
15263;BME280;7733;51.554;13.590;2023-02-21T09:15:06;100424.78;;;9.93;100.00
15263;BME280;7733;51.554;13.590;2023-02-21T09:17:32;100425.66;;;9.92;100.00
15263;BME280;7733;51.554;13.590;2023-02-21T09:20:05;100439.56;;;9.97;100.00
15263;BME280;7733;51.554;13.590;2023-02-21T09:22:31;100421.28;;;9.92;100.00
15263;BME280;7733;51.554;13.590;2023-02-21T09:24:58;100433.41;;;9.99;100.00
15263;BME280;7733;51.554;13.590;2023-02-21T09:27:24;100429.78;;;10.13;100.00
15263;BME280;7733;51.554;13.590;2023-02-21T09:30:21;100435.06;;;10.10;100.00
15263;BME280;7733;51.554;13.590;2023-02-21T09:32:49;100435.97;;;10.09;100.00
15263;BME280;7733;51.554;13.590;2023-02-21T09:35:16;100434.13;;;10.15;100.00
15263;BME280;7733;51.554;13.590;2023-02-21T09:37:44;100443.75;;;10.15;100.00
15263;BME280;7733;51.554;13.590;2023-02-21T09:43:00;100431.44;;;10.26;100.00
15263;BME280;7733;51.554;13.590;2023-02-21T09:45:32;100441.06;;;10.21;100.00
15263;BME280;7733;51.554;13.590;2023-02-21T09:48:06;100433.22;;;10.18;100.00
15263;BME280;7733;51.554;13.590;2023-02-21T09:50:45;100443.69;;;10.24;100.00
15263;BME280;7733;51.554;13.590;2023-02-21T09:53:23;100439.34;;;10.17;100.00
15263;BME280;7733;51.554;13.590;2023-02-21T09:55:56;100447.13;;;10.29;100.00
15263;BME280;7733;51.554;13.590;2023-02-21T09:58:24;100449.78;;;10.20;100.00
15263;BME280;7733;51.554;13.590;2023-02-21T10:00:50;100456.81;;;10.16;100.00
15263;BME280;7733;51.554;13.590;2023-02-21T10:03:37;100442.84;;;10.22;100.00
15263;BME280;7733;51.554;13.590;2023-02-21T10:12:01;100441.06;;;10.19;100.00
15263;BME280;7733;51.554;13.590;2023-02-21T10:20:36;100455.88;;;10.26;100.00
15263;BME280;7733;51.554;13.590;2023-02-21T10:23:14;100463.84;;;10.14;100.00
15263;BME280;7733;51.554;13.590;2023-02-21T10:25:45;100467.28;;;10.19;100.00
15263;BME280;7733;51.554;13.590;2023-02-21T10:28:19;100464.75;;;10.12;100.00
15263;BME280;7733;51.554;13.590;2023-02-21T10:30:49;100465.63;;;10.11;100.00
15263;BME280;7733;51.554;13.590;2023-02-21T10:33:16;100468.25;;;10.11;100.00
15263;BME280;7733;51.554;13.590;2023-02-21T10:35:42;100459.44;;;10.16;100.00
15263;BME280;7733;51.554;13.590;2023-02-21T10:38:25;100456.78;;;10.19;100.00
15263;BME280;7733;51.554;13.590;2023-02-21T10:40:56;100456.69;;;10.31;100.00
15263;BME280;7733;51.554;13.590;2023-02-21T10:43:44;100457.69;;;10.23;100.00
15263;BME280;7733;51.554;13.590;2023-02-21T10:46:36;100456.78;;;10.25;100.00
15263;BME280;7733;51.554;13.590;2023-02-21T10:52:11;100454.91;;;10.35;100.00
15263;BME280;7733;51.554;13.590;2023-02-21T10:54:37;100453.09;;;10.39;100.00
15263;BME280;7733;51.554;13.590;2023-02-21T10:57:07;100460.22;;;10.29;100.00
15263;BME280;7733;51.554;13.590;2023-02-21T10:59:41;100454.78;;;10.46;100.00
15263;BME280;7733;51.554;13.590;2023-02-21T11:02:32;100449.59;;;10.41;100.00
15263;BME280;7733;51.554;13.590;2023-02-21T11:05:20;100448.63;;;10.48;100.00
15263;BME280;7733;51.554;13.590;2023-02-21T11:08:00;100453.09;;;10.42;100.00
15263;BME280;7733;51.554;13.590;2023-02-21T11:10:32;100450.25;;;10.57;100.00
15263;BME280;7733;51.554;13.590;2023-02-21T11:13:13;100447.78;;;10.46;100.00
15263;BME280;7733;51.554;13.590;2023-02-21T11:15:40;100442.28;;;10.66;100.00
15263;BME280;7733;51.554;13.590;2023-02-21T11:18:23;100447.50;;;10.68;100.00
15263;BME280;7733;51.554;13.590;2023-02-21T11:20:52;100446.41;;;10.81;100.00
15263;BME280;7733;51.554;13.590;2023-02-21T11:23:26;100440.47;;;10.70;100.00
15263;BME280;7733;51.554;13.590;2023-02-21T11:26:13;100427.78;;;11.02;100.00
15263;BME280;7733;51.554;13.590;2023-02-21T11:28:42;100428.66;;;11.00;100.00
15263;BME280;7733;51.554;13.590;2023-02-21T11:31:33;100426.81;;;11.06;100.00
15263;BME280;7733;51.554;13.590;2023-02-21T11:34:03;100432.78;;;11.16;100.00
15263;BME280;7733;51.554;13.590;2023-02-21T11:36:41;100435.44;;;11.14;100.00
15263;BME280;7733;51.554;13.590;2023-02-21T11:39:31;100417.94;;;11.13;100.00
15263;BME280;7733;51.554;13.590;2023-02-21T11:42:00;100420.50;;;11.18;100.00
15263;BME280;7733;51.554;13.590;2023-02-21T11:44:35;100418.88;;;11.11;100.00
15263;BME280;7733;51.554;13.590;2023-02-21T11:47:32;100421.25;;;11.26;100.00
15263;BME280;7733;51.554;13.590;2023-02-21T11:53:23;100427.28;;;11.31;100.00
15263;BME280;7733;51.554;13.590;2023-02-21T11:56:23;100426.44;;;11.31;100.00
15263;BME280;7733;51.554;13.590;2023-02-21T11:59:11;100423.97;;;11.20;100.00
15263;BME280;7733;51.554;13.590;2023-02-21T12:02:00;100423.25;;;11.10;100.00
15263;BME280;7733;51.554;13.590;2023-02-21T12:07:19;100411.69;;;11.22;100.00
15263;BME280;7733;51.554;13.590;2023-02-21T12:09:58;100420.53;;;11.16;100.00
15263;BME280;7733;51.554;13.590;2023-02-21T12:15:55;100415.75;;;11.40;100.00
15263;BME280;7733;51.554;13.590;2023-02-21T12:27:03;100405.66;;;11.68;100.00
15263;BME280;7733;51.554;13.590;2023-02-21T12:30:40;100401.97;;;11.76;100.00
15263;BME280;7733;51.554;13.590;2023-02-21T12:48:09;100384.94;;;11.99;100.00
15263;BME280;7733;51.554;13.590;2023-02-21T12:50:38;100390.69;;;12.17;100.00
15263;BME280;7733;51.554;13.590;2023-02-21T12:53:40;100386.66;;;12.00;100.00
15263;BME280;7733;51.554;13.590;2023-02-21T12:56:21;100391.03;;;11.99;100.00
15263;BME280;7733;51.554;13.590;2023-02-21T12:58:56;100399.66;;;12.07;100.00
15263;BME280;7733;51.554;13.590;2023-02-21T13:01:35;100378.00;;;11.95;100.00
15263;BME280;7733;51.554;13.590;2023-02-21T13:04:22;100377.06;;;11.97;100.00
15263;BME280;7733;51.554;13.590;2023-02-21T13:07:37;100394.66;;;11.94;100.00
15263;BME280;7733;51.554;13.590;2023-02-21T13:10:04;100392.03;;;11.94;100.00
15263;BME280;7733;51.554;13.590;2023-02-21T13:12:35;100390.38;;;11.90;100.00
15263;BME280;7733;51.554;13.590;2023-02-21T13:15:25;100386.63;;;12.03;100.00
15263;BME280;7733;51.554;13.590;2023-02-21T13:20:29;100385.97;;;11.92;100.00
15263;BME280;7733;51.554;13.590;2023-02-21T13:29:17;100383.44;;;11.87;100.00
15263;BME280;7733;51.554;13.590;2023-02-21T13:31:44;100378.19;;;11.85;100.00
15263;BME280;7733;51.554;13.590;2023-02-21T13:34:17;100373.66;;;11.94;100.00
15263;BME280;7733;51.554;13.590;2023-02-21T13:36:46;100377.03;;;11.99;100.00
15263;BME280;7733;51.554;13.590;2023-02-21T13:39:20;100371.09;;;11.91;100.00
15263;BME280;7733;51.554;13.590;2023-02-21T13:41:53;100379.72;;;11.96;100.00
15263;BME280;7733;51.554;13.590;2023-02-21T13:44:53;100381.47;;;11.97;100.00
15263;BME280;7733;51.554;13.590;2023-02-21T13:47:22;100378.94;;;11.92;100.00
15263;BME280;7733;51.554;13.590;2023-02-21T13:49:54;100372.91;;;11.87;100.00
15263;BME280;7733;51.554;13.590;2023-02-21T13:58:27;100388.72;;;11.85;100.00
15263;BME280;7733;51.554;13.590;2023-02-21T14:10:53;100381.78;;;11.81;100.00
15263;BME280;7733;51.554;13.590;2023-02-21T14:29:41;100403.31;;;11.99;100.00
15263;BME280;7733;51.554;13.590;2023-02-21T14:37:41;100404.22;;;11.98;100.00
15263;BME280;7733;51.554;13.590;2023-02-21T14:43:33;100402.81;;;11.81;100.00
15263;BME280;7733;51.554;13.590;2023-02-21T15:01:50;100401.41;;;12.08;100.00
15263;BME280;7733;51.554;13.590;2023-02-21T15:07:24;100405.03;;;12.01;100.00
15263;BME280;7733;51.554;13.590;2023-02-21T15:10:32;100403.50;;;11.91;100.00
15263;BME280;7733;51.554;13.590;2023-02-21T15:13:04;100410.09;;;12.12;100.00
15263;BME280;7733;51.554;13.590;2023-02-21T15:15:41;100416.34;;;12.06;100.00
15263;BME280;7733;51.554;13.590;2023-02-21T15:18:08;100412.03;;;12.01;100.00
15263;BME280;7733;51.554;13.590;2023-02-21T15:20:39;100411.19;;;12.02;100.00
15263;BME280;7733;51.554;13.590;2023-02-21T15:23:21;100416.44;;;12.02;100.00
15263;BME280;7733;51.554;13.590;2023-02-21T15:25:57;100414.56;;;12.07;100.00
15263;BME280;7733;51.554;13.590;2023-02-21T15:28:28;100412.75;;;12.10;100.00
15263;BME280;7733;51.554;13.590;2023-02-21T15:31:07;100421.69;;;12.02;100.00
15263;BME280;7733;51.554;13.590;2023-02-21T15:33:39;100411.13;;;12.05;100.00
15263;BME280;7733;51.554;13.590;2023-02-21T15:36:17;100409.31;;;12.07;100.00
15263;BME280;7733;51.554;13.590;2023-02-21T15:39:05;100406.81;;;11.99;100.00
15263;BME280;7733;51.554;13.590;2023-02-21T15:41:51;100415.72;;;11.92;100.00
15263;BME280;7733;51.554;13.590;2023-02-21T15:44:37;100419.06;;;12.02;100.00
15263;BME280;7733;51.554;13.590;2023-02-21T15:47:19;100413.91;;;11.96;100.00
15263;BME280;7733;51.554;13.590;2023-02-21T15:50:14;100419.09;;;11.99;100.00